sensor_id;sensor_type;location;lat;lon;timestamp;P1;durP1;ratioP1;P2;durP2;ratioP2
14599;SDS011;7386;45.586;12.854;2023-01-19T00:00:49;24.80;;;20.03;;
14599;SDS011;7386;45.586;12.854;2023-01-19T00:03:17;23.37;;;19.70;;
14599;SDS011;7386;45.586;12.854;2023-01-19T00:05:47;25.43;;;20.27;;
14599;SDS011;7386;45.586;12.854;2023-01-19T00:08:15;25.57;;;20.03;;
14599;SDS011;7386;45.586;12.854;2023-01-19T00:10:44;25.10;;;19.77;;
14599;SDS011;7386;45.586;12.854;2023-01-19T00:13:13;24.23;;;19.80;;
14599;SDS011;7386;45.586;12.854;2023-01-19T00:15:43;23.07;;;18.50;;
14599;SDS011;7386;45.586;12.854;2023-01-19T00:18:12;23.93;;;18.87;;
14599;SDS011;7386;45.586;12.854;2023-01-19T00:20:40;25.03;;;19.90;;
14599;SDS011;7386;45.586;12.854;2023-01-19T00:23:09;25.57;;;20.50;;
14599;SDS011;7386;45.586;12.854;2023-01-19T00:25:37;24.40;;;19.53;;
14599;SDS011;7386;45.586;12.854;2023-01-19T00:28:08;22.63;;;19.20;;
14599;SDS011;7386;45.586;12.854;2023-01-19T00:30:37;23.87;;;18.27;;
14599;SDS011;7386;45.586;12.854;2023-01-19T00:33:07;24.50;;;18.93;;
14599;SDS011;7386;45.586;12.854;2023-01-19T00:35:35;23.57;;;19.13;;
14599;SDS011;7386;45.586;12.854;2023-01-19T00:38:04;25.03;;;19.83;;
14599;SDS011;7386;45.586;12.854;2023-01-19T00:40:32;24.83;;;19.10;;
14599;SDS011;7386;45.586;12.854;2023-01-19T00:43:01;25.77;;;20.07;;
14599;SDS011;7386;45.586;12.854;2023-01-19T00:45:30;27.90;;;21.67;;
14599;SDS011;7386;45.586;12.854;2023-01-19T00:47:59;30.10;;;22.80;;
14599;SDS011;7386;45.586;12.854;2023-01-19T00:50:29;26.00;;;21.57;;
14599;SDS011;7386;45.586;12.854;2023-01-19T00:52:58;30.03;;;23.20;;
14599;SDS011;7386;45.586;12.854;2023-01-19T00:55:27;28.93;;;22.40;;
14599;SDS011;7386;45.586;12.854;2023-01-19T00:57:56;27.80;;;22.37;;
14599;SDS011;7386;45.586;12.854;2023-01-19T01:00:25;29.53;;;23.83;;
14599;SDS011;7386;45.586;12.854;2023-01-19T01:02:53;26.70;;;20.97;;
14599;SDS011;7386;45.586;12.854;2023-01-19T01:05:22;29.37;;;21.13;;
14599;SDS011;7386;45.586;12.854;2023-01-19T01:07:51;29.23;;;22.67;;
14599;SDS011;7386;45.586;12.854;2023-01-19T01:10:21;29.87;;;22.93;;
14599;SDS011;7386;45.586;12.854;2023-01-19T01:12:49;30.43;;;22.20;;
14599;SDS011;7386;45.586;12.854;2023-01-19T01:15:24;31.20;;;23.03;;
14599;SDS011;7386;45.586;12.854;2023-01-19T01:17:53;28.97;;;22.37;;
14599;SDS011;7386;45.586;12.854;2023-01-19T01:20:22;30.30;;;21.77;;
14599;SDS011;7386;45.586;12.854;2023-01-19T01:22:52;28.93;;;22.57;;
14599;SDS011;7386;45.586;12.854;2023-01-19T01:25:21;27.57;;;21.90;;
14599;SDS011;7386;45.586;12.854;2023-01-19T01:27:50;30.57;;;21.90;;
14599;SDS011;7386;45.586;12.854;2023-01-19T01:30:19;26.43;;;21.20;;
14599;SDS011;7386;45.586;12.854;2023-01-19T01:32:48;27.03;;;21.03;;
14599;SDS011;7386;45.586;12.854;2023-01-19T01:35:16;25.77;;;20.60;;
14599;SDS011;7386;45.586;12.854;2023-01-19T01:37:45;29.77;;;22.07;;
14599;SDS011;7386;45.586;12.854;2023-01-19T01:40:15;29.30;;;22.50;;
14599;SDS011;7386;45.586;12.854;2023-01-19T01:42:44;25.73;;;21.27;;
14599;SDS011;7386;45.586;12.854;2023-01-19T01:47:57;27.17;;;20.87;;
14599;SDS011;7386;45.586;12.854;2023-01-19T01:50:28;29.17;;;22.13;;
14599;SDS011;7386;45.586;12.854;2023-01-19T01:52:57;28.07;;;21.80;;
14599;SDS011;7386;45.586;12.854;2023-01-19T01:55:35;25.00;;;20.87;;
14599;SDS011;7386;45.586;12.854;2023-01-19T01:58:04;26.60;;;21.10;;
14599;SDS011;7386;45.586;12.854;2023-01-19T02:00:35;28.77;;;21.63;;
14599;SDS011;7386;45.586;12.854;2023-01-19T02:03:19;26.07;;;21.20;;
14599;SDS011;7386;45.586;12.854;2023-01-19T02:05:48;26.63;;;20.23;;
14599;SDS011;7386;45.586;12.854;2023-01-19T02:08:18;23.07;;;19.07;;
14599;SDS011;7386;45.586;12.854;2023-01-19T02:11:06;23.97;;;19.33;;
14599;SDS011;7386;45.586;12.854;2023-01-19T02:13:53;21.67;;;17.70;;
14599;SDS011;7386;45.586;12.854;2023-01-19T02:16:21;23.77;;;18.10;;
14599;SDS011;7386;45.586;12.854;2023-01-19T02:18:50;21.17;;;17.17;;
14599;SDS011;7386;45.586;12.854;2023-01-19T02:21:19;20.60;;;16.90;;
14599;SDS011;7386;45.586;12.854;2023-01-19T02:23:51;22.07;;;16.90;;
14599;SDS011;7386;45.586;12.854;2023-01-19T02:26:20;20.33;;;16.33;;
14599;SDS011;7386;45.586;12.854;2023-01-19T02:28:50;20.33;;;16.37;;
14599;SDS011;7386;45.586;12.854;2023-01-19T02:31:23;20.30;;;15.27;;
14599;SDS011;7386;45.586;12.854;2023-01-19T02:33:51;18.33;;;15.13;;
14599;SDS011;7386;45.586;12.854;2023-01-19T02:36:21;19.97;;;15.70;;
14599;SDS011;7386;45.586;12.854;2023-01-19T02:38:53;19.93;;;16.93;;
14599;SDS011;7386;45.586;12.854;2023-01-19T02:41:23;17.30;;;14.47;;
14599;SDS011;7386;45.586;12.854;2023-01-19T02:43:53;16.40;;;13.63;;
14599;SDS011;7386;45.586;12.854;2023-01-19T02:46:23;15.57;;;13.10;;
14599;SDS011;7386;45.586;12.854;2023-01-19T02:48:51;14.70;;;12.40;;
14599;SDS011;7386;45.586;12.854;2023-01-19T02:51:21;13.60;;;11.13;;
14599;SDS011;7386;45.586;12.854;2023-01-19T02:54:01;14.33;;;10.33;;
14599;SDS011;7386;45.586;12.854;2023-01-19T02:56:43;12.50;;;9.90;;
14599;SDS011;7386;45.586;12.854;2023-01-19T02:59:17;12.60;;;10.20;;
14599;SDS011;7386;45.586;12.854;2023-01-19T03:01:53;14.80;;;11.37;;
14599;SDS011;7386;45.586;12.854;2023-01-19T03:04:27;13.83;;;10.63;;
14599;SDS011;7386;45.586;12.854;2023-01-19T03:06:58;12.33;;;9.73;;
14599;SDS011;7386;45.586;12.854;2023-01-19T03:09:30;13.90;;;9.83;;
14599;SDS011;7386;45.586;12.854;2023-01-19T03:12:09;13.27;;;10.63;;
14599;SDS011;7386;45.586;12.854;2023-01-19T03:14:41;14.47;;;11.00;;
14599;SDS011;7386;45.586;12.854;2023-01-19T03:17:11;12.63;;;9.93;;
14599;SDS011;7386;45.586;12.854;2023-01-19T03:19:40;13.43;;;9.73;;
14599;SDS011;7386;45.586;12.854;2023-01-19T03:22:10;11.57;;;9.40;;
14599;SDS011;7386;45.586;12.854;2023-01-19T03:24:41;13.13;;;9.93;;
14599;SDS011;7386;45.586;12.854;2023-01-19T03:27:10;11.00;;;8.23;;
14599;SDS011;7386;45.586;12.854;2023-01-19T03:29:40;11.47;;;9.00;;
14599;SDS011;7386;45.586;12.854;2023-01-19T03:32:11;10.80;;;8.40;;
14599;SDS011;7386;45.586;12.854;2023-01-19T03:34:41;11.03;;;8.60;;
14599;SDS011;7386;45.586;12.854;2023-01-19T03:37:10;10.30;;;8.00;;
14599;SDS011;7386;45.586;12.854;2023-01-19T03:39:42;8.87;;;7.23;;
14599;SDS011;7386;45.586;12.854;2023-01-19T03:42:11;8.20;;;6.70;;
14599;SDS011;7386;45.586;12.854;2023-01-19T03:44:41;8.57;;;6.20;;
14599;SDS011;7386;45.586;12.854;2023-01-19T03:47:11;8.20;;;5.30;;
14599;SDS011;7386;45.586;12.854;2023-01-19T03:49:41;4.33;;;3.73;;
14599;SDS011;7386;45.586;12.854;2023-01-19T03:52:10;4.37;;;3.60;;
14599;SDS011;7386;45.586;12.854;2023-01-19T03:54:39;3.20;;;2.90;;
14599;SDS011;7386;45.586;12.854;2023-01-19T03:57:10;2.50;;;2.30;;
14599;SDS011;7386;45.586;12.854;2023-01-19T03:59:38;2.20;;;2.00;;
14599;SDS011;7386;45.586;12.854;2023-01-19T04:02:07;2.10;;;1.90;;
14599;SDS011;7386;45.586;12.854;2023-01-19T04:04:35;1.70;;;1.60;;
14599;SDS011;7386;45.586;12.854;2023-01-19T04:07:07;1.70;;;1.60;;
14599;SDS011;7386;45.586;12.854;2023-01-19T04:09:35;1.40;;;1.40;;
14599;SDS011;7386;45.586;12.854;2023-01-19T04:12:04;1.50;;;1.50;;
14599;SDS011;7386;45.586;12.854;2023-01-19T04:14:34;1.47;;;1.43;;
14599;SDS011;7386;45.586;12.854;2023-01-19T04:17:02;1.40;;;1.40;;
14599;SDS011;7386;45.586;12.854;2023-01-19T04:19:31;1.47;;;1.43;;
14599;SDS011;7386;45.586;12.854;2023-01-19T04:21:59;1.50;;;1.40;;
14599;SDS011;7386;45.586;12.854;2023-01-19T04:24:28;1.57;;;1.50;;
14599;SDS011;7386;45.586;12.854;2023-01-19T04:26:56;1.40;;;1.40;;
14599;SDS011;7386;45.586;12.854;2023-01-19T04:29:25;1.40;;;1.40;;
14599;SDS011;7386;45.586;12.854;2023-01-19T04:31:55;1.80;;;1.70;;
14599;SDS011;7386;45.586;12.854;2023-01-19T04:34:23;1.77;;;1.67;;
14599;SDS011;7386;45.586;12.854;2023-01-19T04:36:52;1.50;;;1.50;;
14599;SDS011;7386;45.586;12.854;2023-01-19T04:39:21;1.50;;;1.50;;
14599;SDS011;7386;45.586;12.854;2023-01-19T04:41:49;1.47;;;1.47;;
14599;SDS011;7386;45.586;12.854;2023-01-19T04:44:18;1.67;;;1.57;;
14599;SDS011;7386;45.586;12.854;2023-01-19T04:46:46;1.60;;;1.50;;
14599;SDS011;7386;45.586;12.854;2023-01-19T04:49:18;1.70;;;1.60;;
14599;SDS011;7386;45.586;12.854;2023-01-19T04:51:46;1.87;;;1.70;;
14599;SDS011;7386;45.586;12.854;2023-01-19T04:54:15;2.00;;;1.80;;
14599;SDS011;7386;45.586;12.854;2023-01-19T04:56:43;1.70;;;1.60;;
14599;SDS011;7386;45.586;12.854;2023-01-19T04:59:12;1.70;;;1.60;;
14599;SDS011;7386;45.586;12.854;2023-01-19T05:01:41;1.70;;;1.60;;
14599;SDS011;7386;45.586;12.854;2023-01-19T05:04:09;1.90;;;1.80;;
14599;SDS011;7386;45.586;12.854;2023-01-19T05:06:39;1.90;;;1.80;;
14599;SDS011;7386;45.586;12.854;2023-01-19T05:09:08;1.70;;;1.60;;
14599;SDS011;7386;45.586;12.854;2023-01-19T05:11:38;1.90;;;1.80;;
14599;SDS011;7386;45.586;12.854;2023-01-19T05:14:06;2.33;;;1.70;;
14599;SDS011;7386;45.586;12.854;2023-01-19T05:16:35;1.70;;;1.60;;
14599;SDS011;7386;45.586;12.854;2023-01-19T05:19:03;2.13;;;1.90;;
14599;SDS011;7386;45.586;12.854;2023-01-19T05:21:32;2.00;;;1.90;;
14599;SDS011;7386;45.586;12.854;2023-01-19T05:24:02;1.97;;;1.87;;
14599;SDS011;7386;45.586;12.854;2023-01-19T05:26:30;2.87;;;1.90;;
14599;SDS011;7386;45.586;12.854;2023-01-19T05:28:59;2.53;;;1.80;;
14599;SDS011;7386;45.586;12.854;2023-01-19T05:31:27;1.87;;;1.77;;
14599;SDS011;7386;45.586;12.854;2023-01-19T05:33:56;1.90;;;1.80;;
14599;SDS011;7386;45.586;12.854;2023-01-19T05:36:24;2.10;;;2.00;;
14599;SDS011;7386;45.586;12.854;2023-01-19T05:38:53;1.73;;;1.63;;
14599;SDS011;7386;45.586;12.854;2023-01-19T05:41:23;1.80;;;1.70;;
14599;SDS011;7386;45.586;12.854;2023-01-19T05:43:51;1.70;;;1.60;;
14599;SDS011;7386;45.586;12.854;2023-01-19T05:46:20;1.70;;;1.60;;
14599;SDS011;7386;45.586;12.854;2023-01-19T05:48:49;1.80;;;1.70;;
14599;SDS011;7386;45.586;12.854;2023-01-19T05:51:18;1.80;;;1.70;;
14599;SDS011;7386;45.586;12.854;2023-01-19T05:53:46;1.70;;;1.60;;
14599;SDS011;7386;45.586;12.854;2023-01-19T05:56:15;2.83;;;1.70;;
14599;SDS011;7386;45.586;12.854;2023-01-19T05:58:45;2.00;;;1.90;;
14599;SDS011;7386;45.586;12.854;2023-01-19T06:01:13;2.00;;;1.90;;
14599;SDS011;7386;45.586;12.854;2023-01-19T06:03:42;2.00;;;1.90;;
14599;SDS011;7386;45.586;12.854;2023-01-19T06:06:10;3.20;;;2.20;;
14599;SDS011;7386;45.586;12.854;2023-01-19T06:08:40;2.40;;;2.20;;
14599;SDS011;7386;45.586;12.854;2023-01-19T06:11:09;2.40;;;2.20;;
14599;SDS011;7386;45.586;12.854;2023-01-19T06:13:37;2.37;;;2.10;;
14599;SDS011;7386;45.586;12.854;2023-01-19T06:16:08;2.90;;;2.23;;
14599;SDS011;7386;45.586;12.854;2023-01-19T06:18:37;2.20;;;2.00;;
14599;SDS011;7386;45.586;12.854;2023-01-19T06:21:06;2.13;;;1.93;;
14599;SDS011;7386;45.586;12.854;2023-01-19T06:23:37;2.30;;;2.10;;
14599;SDS011;7386;45.586;12.854;2023-01-19T06:26:06;2.00;;;1.90;;
14599;SDS011;7386;45.586;12.854;2023-01-19T06:28:34;2.17;;;1.97;;
14599;SDS011;7386;45.586;12.854;2023-01-19T06:31:03;1.97;;;1.87;;
14599;SDS011;7386;45.586;12.854;2023-01-19T06:33:33;3.00;;;2.20;;
14599;SDS011;7386;45.586;12.854;2023-01-19T06:36:01;2.30;;;2.10;;
14599;SDS011;7386;45.586;12.854;2023-01-19T06:38:30;2.20;;;2.10;;
14599;SDS011;7386;45.586;12.854;2023-01-19T06:40:59;2.50;;;2.30;;
14599;SDS011;7386;45.586;12.854;2023-01-19T06:43:28;2.33;;;2.13;;
14599;SDS011;7386;45.586;12.854;2023-01-19T06:45:57;2.20;;;2.00;;
14599;SDS011;7386;45.586;12.854;2023-01-19T06:48:26;3.93;;;2.20;;
14599;SDS011;7386;45.586;12.854;2023-01-19T06:50:56;2.50;;;2.30;;
14599;SDS011;7386;45.586;12.854;2023-01-19T06:53:26;2.90;;;2.27;;
14599;SDS011;7386;45.586;12.854;2023-01-19T06:55:58;2.30;;;2.10;;
14599;SDS011;7386;45.586;12.854;2023-01-19T06:58:29;2.30;;;2.00;;
14599;SDS011;7386;45.586;12.854;2023-01-19T07:01:00;2.23;;;2.10;;
14599;SDS011;7386;45.586;12.854;2023-01-19T07:03:29;2.20;;;2.00;;
14599;SDS011;7386;45.586;12.854;2023-01-19T07:05:59;2.20;;;2.00;;
14599;SDS011;7386;45.586;12.854;2023-01-19T07:08:28;2.33;;;2.13;;
14599;SDS011;7386;45.586;12.854;2023-01-19T07:10:58;2.20;;;2.00;;
14599;SDS011;7386;45.586;12.854;2023-01-19T07:13:47;2.40;;;2.10;;
14599;SDS011;7386;45.586;12.854;2023-01-19T07:16:17;2.10;;;2.00;;
14599;SDS011;7386;45.586;12.854;2023-01-19T07:18:46;2.20;;;2.00;;
14599;SDS011;7386;45.586;12.854;2023-01-19T07:21:16;2.10;;;2.00;;
14599;SDS011;7386;45.586;12.854;2023-01-19T07:23:46;2.67;;;2.03;;
14599;SDS011;7386;45.586;12.854;2023-01-19T07:26:15;2.17;;;2.00;;
14599;SDS011;7386;45.586;12.854;2023-01-19T07:28:47;2.20;;;2.10;;
14599;SDS011;7386;45.586;12.854;2023-01-19T07:31:16;2.00;;;1.90;;
14599;SDS011;7386;45.586;12.854;2023-01-19T07:33:45;2.60;;;2.30;;
14599;SDS011;7386;45.586;12.854;2023-01-19T07:36:13;2.70;;;2.43;;
14599;SDS011;7386;45.586;12.854;2023-01-19T07:38:43;2.43;;;2.20;;
14599;SDS011;7386;45.586;12.854;2023-01-19T07:41:12;2.07;;;1.97;;
14599;SDS011;7386;45.586;12.854;2023-01-19T07:43:40;3.97;;;2.20;;
14599;SDS011;7386;45.586;12.854;2023-01-19T07:46:09;2.37;;;2.20;;
14599;SDS011;7386;45.586;12.854;2023-01-19T07:48:37;2.13;;;1.93;;
14599;SDS011;7386;45.586;12.854;2023-01-19T07:51:06;3.50;;;2.07;;
14599;SDS011;7386;45.586;12.854;2023-01-19T07:53:38;1.90;;;1.80;;
14599;SDS011;7386;45.586;12.854;2023-01-19T07:56:08;2.00;;;1.90;;
14599;SDS011;7386;45.586;12.854;2023-01-19T07:58:37;1.93;;;1.83;;
14599;SDS011;7386;45.586;12.854;2023-01-19T08:01:06;4.97;;;1.80;;
14599;SDS011;7386;45.586;12.854;2023-01-19T08:03:35;2.10;;;1.90;;
14599;SDS011;7386;45.586;12.854;2023-01-19T08:06:03;4.53;;;2.03;;
14599;SDS011;7386;45.586;12.854;2023-01-19T08:08:32;1.80;;;1.70;;
14599;SDS011;7386;45.586;12.854;2023-01-19T08:11:01;1.80;;;1.70;;
14599;SDS011;7386;45.586;12.854;2023-01-19T08:13:31;2.30;;;1.80;;
14599;SDS011;7386;45.586;12.854;2023-01-19T08:15:59;3.13;;;1.60;;
14599;SDS011;7386;45.586;12.854;2023-01-19T08:18:28;1.77;;;1.67;;
14599;SDS011;7386;45.586;12.854;2023-01-19T08:20:57;1.70;;;1.60;;
14599;SDS011;7386;45.586;12.854;2023-01-19T08:23:25;1.83;;;1.73;;
14599;SDS011;7386;45.586;12.854;2023-01-19T08:25:54;1.70;;;1.60;;
14599;SDS011;7386;45.586;12.854;2023-01-19T08:28:22;1.57;;;1.50;;
14599;SDS011;7386;45.586;12.854;2023-01-19T08:30:52;1.67;;;1.57;;
14599;SDS011;7386;45.586;12.854;2023-01-19T08:33:21;1.80;;;1.70;;
14599;SDS011;7386;45.586;12.854;2023-01-19T08:35:51;1.53;;;1.53;;
14599;SDS011;7386;45.586;12.854;2023-01-19T08:38:19;1.70;;;1.60;;
14599;SDS011;7386;45.586;12.854;2023-01-19T08:40:48;1.60;;;1.50;;
14599;SDS011;7386;45.586;12.854;2023-01-19T08:43:16;1.70;;;1.60;;
14599;SDS011;7386;45.586;12.854;2023-01-19T08:45:48;1.70;;;1.60;;
14599;SDS011;7386;45.586;12.854;2023-01-19T08:48:19;1.87;;;1.73;;
14599;SDS011;7386;45.586;12.854;2023-01-19T08:50:49;1.80;;;1.70;;
14599;SDS011;7386;45.586;12.854;2023-01-19T08:53:18;1.90;;;1.80;;
14599;SDS011;7386;45.586;12.854;2023-01-19T08:55:49;1.80;;;1.70;;
14599;SDS011;7386;45.586;12.854;2023-01-19T08:58:17;1.90;;;1.80;;
14599;SDS011;7386;45.586;12.854;2023-01-19T09:00:46;1.80;;;1.70;;
14599;SDS011;7386;45.586;12.854;2023-01-19T09:03:19;1.90;;;1.80;;
14599;SDS011;7386;45.586;12.854;2023-01-19T09:05:48;1.83;;;1.73;;
14599;SDS011;7386;45.586;12.854;2023-01-19T09:08:16;1.80;;;1.70;;
14599;SDS011;7386;45.586;12.854;2023-01-19T09:10:45;1.83;;;1.73;;
14599;SDS011;7386;45.586;12.854;2023-01-19T09:13:14;2.00;;;1.90;;
14599;SDS011;7386;45.586;12.854;2023-01-19T09:15:43;2.70;;;1.97;;
14599;SDS011;7386;45.586;12.854;2023-01-19T09:18:12;2.57;;;2.27;;
14599;SDS011;7386;45.586;12.854;2023-01-19T09:20:43;2.03;;;1.90;;
14599;SDS011;7386;45.586;12.854;2023-01-19T09:23:12;2.23;;;2.00;;
14599;SDS011;7386;45.586;12.854;2023-01-19T09:25:41;4.20;;;1.90;;
14599;SDS011;7386;45.586;12.854;2023-01-19T09:28:11;2.20;;;2.00;;
14599;SDS011;7386;45.586;12.854;2023-01-19T09:30:41;2.13;;;1.93;;
14599;SDS011;7386;45.586;12.854;2023-01-19T09:33:10;2.30;;;2.10;;
14599;SDS011;7386;45.586;12.854;2023-01-19T09:35:40;2.20;;;2.00;;
14599;SDS011;7386;45.586;12.854;2023-01-19T09:38:10;2.30;;;2.10;;
14599;SDS011;7386;45.586;12.854;2023-01-19T09:40:40;1.97;;;1.87;;
14599;SDS011;7386;45.586;12.854;2023-01-19T09:43:13;2.00;;;1.83;;
14599;SDS011;7386;45.586;12.854;2023-01-19T09:45:43;1.90;;;1.80;;
14599;SDS011;7386;45.586;12.854;2023-01-19T09:48:17;3.03;;;2.20;;
14599;SDS011;7386;45.586;12.854;2023-01-19T09:50:48;2.23;;;2.03;;
14599;SDS011;7386;45.586;12.854;2023-01-19T09:53:19;2.60;;;2.30;;
14599;SDS011;7386;45.586;12.854;2023-01-19T09:55:48;3.40;;;2.50;;
14599;SDS011;7386;45.586;12.854;2023-01-19T09:58:17;3.87;;;2.33;;
14599;SDS011;7386;45.586;12.854;2023-01-19T10:00:48;2.80;;;2.30;;
14599;SDS011;7386;45.586;12.854;2023-01-19T10:03:19;2.63;;;2.33;;
14599;SDS011;7386;45.586;12.854;2023-01-19T10:05:49;2.20;;;2.00;;
14599;SDS011;7386;45.586;12.854;2023-01-19T10:08:22;2.53;;;2.10;;
14599;SDS011;7386;45.586;12.854;2023-01-19T10:10:54;2.10;;;1.90;;
14599;SDS011;7386;45.586;12.854;2023-01-19T10:13:27;1.87;;;1.77;;
14599;SDS011;7386;45.586;12.854;2023-01-19T10:16:01;1.67;;;1.57;;
14599;SDS011;7386;45.586;12.854;2023-01-19T10:18:36;1.70;;;1.60;;
14599;SDS011;7386;45.586;12.854;2023-01-19T10:21:11;1.80;;;1.70;;
14599;SDS011;7386;45.586;12.854;2023-01-19T10:23:43;1.73;;;1.63;;
14599;SDS011;7386;45.586;12.854;2023-01-19T10:26:14;1.73;;;1.63;;
14599;SDS011;7386;45.586;12.854;2023-01-19T10:28:44;1.70;;;1.60;;
14599;SDS011;7386;45.586;12.854;2023-01-19T10:31:13;1.40;;;1.40;;
14599;SDS011;7386;45.586;12.854;2023-01-19T10:33:42;1.60;;;1.50;;
14599;SDS011;7386;45.586;12.854;2023-01-19T10:36:15;1.90;;;1.70;;
14599;SDS011;7386;45.586;12.854;2023-01-19T10:38:45;1.80;;;1.70;;
14599;SDS011;7386;45.586;12.854;2023-01-19T10:41:16;1.50;;;1.40;;
14599;SDS011;7386;45.586;12.854;2023-01-19T10:43:45;1.80;;;1.70;;
14599;SDS011;7386;45.586;12.854;2023-01-19T10:46:18;1.70;;;1.60;;
14599;SDS011;7386;45.586;12.854;2023-01-19T10:48:48;1.73;;;1.63;;
14599;SDS011;7386;45.586;12.854;2023-01-19T10:51:17;2.27;;;1.80;;
14599;SDS011;7386;45.586;12.854;2023-01-19T10:53:57;1.80;;;1.70;;
14599;SDS011;7386;45.586;12.854;2023-01-19T10:56:28;2.03;;;1.70;;
14599;SDS011;7386;45.586;12.854;2023-01-19T10:58:59;2.23;;;1.60;;
14599;SDS011;7386;45.586;12.854;2023-01-19T11:01:29;1.70;;;1.60;;
14599;SDS011;7386;45.586;12.854;2023-01-19T11:04:17;3.07;;;2.07;;
14599;SDS011;7386;45.586;12.854;2023-01-19T11:06:46;1.97;;;1.80;;
14599;SDS011;7386;45.586;12.854;2023-01-19T11:09:17;2.40;;;1.93;;
14599;SDS011;7386;45.586;12.854;2023-01-19T11:11:47;1.80;;;1.70;;
14599;SDS011;7386;45.586;12.854;2023-01-19T11:14:17;2.47;;;1.93;;
14599;SDS011;7386;45.586;12.854;2023-01-19T11:16:47;2.60;;;1.80;;
14599;SDS011;7386;45.586;12.854;2023-01-19T11:19:21;2.30;;;2.10;;
14599;SDS011;7386;45.586;12.854;2023-01-19T11:21:52;2.23;;;2.03;;
14599;SDS011;7386;45.586;12.854;2023-01-19T11:24:22;1.70;;;1.60;;
14599;SDS011;7386;45.586;12.854;2023-01-19T11:26:53;2.20;;;2.00;;
14599;SDS011;7386;45.586;12.854;2023-01-19T11:29:23;2.03;;;1.90;;
14599;SDS011;7386;45.586;12.854;2023-01-19T11:31:52;1.90;;;1.80;;
14599;SDS011;7386;45.586;12.854;2023-01-19T11:34:24;1.80;;;1.70;;
14599;SDS011;7386;45.586;12.854;2023-01-19T11:36:57;1.70;;;1.60;;
14599;SDS011;7386;45.586;12.854;2023-01-19T11:39:28;2.33;;;1.60;;
14599;SDS011;7386;45.586;12.854;2023-01-19T11:41:57;1.90;;;1.80;;
14599;SDS011;7386;45.586;12.854;2023-01-19T11:44:28;1.80;;;1.70;;
14599;SDS011;7386;45.586;12.854;2023-01-19T11:46:58;1.80;;;1.70;;
14599;SDS011;7386;45.586;12.854;2023-01-19T11:49:30;1.97;;;1.87;;
14599;SDS011;7386;45.586;12.854;2023-01-19T11:52:01;1.90;;;1.80;;
14599;SDS011;7386;45.586;12.854;2023-01-19T11:54:33;1.90;;;1.80;;
14599;SDS011;7386;45.586;12.854;2023-01-19T11:57:05;1.90;;;1.80;;
14599;SDS011;7386;45.586;12.854;2023-01-19T11:59:37;1.67;;;1.57;;
14599;SDS011;7386;45.586;12.854;2023-01-19T12:02:10;1.80;;;1.70;;
14599;SDS011;7386;45.586;12.854;2023-01-19T12:04:41;4.43;;;1.90;;
14599;SDS011;7386;45.586;12.854;2023-01-19T12:07:10;1.90;;;1.80;;
14599;SDS011;7386;45.586;12.854;2023-01-19T12:09:42;3.10;;;2.00;;
14599;SDS011;7386;45.586;12.854;2023-01-19T12:12:14;2.20;;;2.00;;
14599;SDS011;7386;45.586;12.854;2023-01-19T12:14:46;2.03;;;1.93;;
14599;SDS011;7386;45.586;12.854;2023-01-19T12:17:19;4.10;;;1.90;;
14599;SDS011;7386;45.586;12.854;2023-01-19T12:19:53;1.97;;;1.83;;
14599;SDS011;7386;45.586;12.854;2023-01-19T12:22:22;3.93;;;1.70;;
14599;SDS011;7386;45.586;12.854;2023-01-19T12:24:56;2.00;;;1.90;;
14599;SDS011;7386;45.586;12.854;2023-01-19T12:27:32;3.73;;;2.10;;
14599;SDS011;7386;45.586;12.854;2023-01-19T12:30:08;2.20;;;2.00;;
14599;SDS011;7386;45.586;12.854;2023-01-19T12:32:38;2.50;;;2.30;;
14599;SDS011;7386;45.586;12.854;2023-01-19T12:37:51;2.97;;;2.10;;
14599;SDS011;7386;45.586;12.854;2023-01-19T12:40:25;5.90;;;2.30;;
14599;SDS011;7386;45.586;12.854;2023-01-19T12:42:58;3.40;;;2.20;;
14599;SDS011;7386;45.586;12.854;2023-01-19T12:45:29;9.13;;;2.50;;
14599;SDS011;7386;45.586;12.854;2023-01-19T12:47:59;6.20;;;2.70;;
14599;SDS011;7386;45.586;12.854;2023-01-19T12:50:29;4.10;;;2.40;;
14599;SDS011;7386;45.586;12.854;2023-01-19T12:52:59;4.50;;;2.00;;
14599;SDS011;7386;45.586;12.854;2023-01-19T12:55:30;3.27;;;2.10;;
14599;SDS011;7386;45.586;12.854;2023-01-19T12:58:00;3.67;;;2.00;;
14599;SDS011;7386;45.586;12.854;2023-01-19T13:00:31;5.27;;;2.40;;
14599;SDS011;7386;45.586;12.854;2023-01-19T13:03:00;3.33;;;2.23;;
14599;SDS011;7386;45.586;12.854;2023-01-19T13:08:26;5.90;;;2.20;;
14599;SDS011;7386;45.586;12.854;2023-01-19T13:19:52;2.37;;;2.17;;
14599;SDS011;7386;45.586;12.854;2023-01-19T13:25:10;2.60;;;2.40;;
14599;SDS011;7386;45.586;12.854;2023-01-19T13:27:39;2.50;;;2.30;;
14599;SDS011;7386;45.586;12.854;2023-01-19T13:30:11;2.23;;;2.13;;
14599;SDS011;7386;45.586;12.854;2023-01-19T13:32:43;2.37;;;2.17;;
14599;SDS011;7386;45.586;12.854;2023-01-19T13:35:13;2.13;;;2.03;;
14599;SDS011;7386;45.586;12.854;2023-01-19T13:37:44;2.40;;;2.20;;
14599;SDS011;7386;45.586;12.854;2023-01-19T13:40:15;2.47;;;2.27;;
14599;SDS011;7386;45.586;12.854;2023-01-19T13:42:44;2.63;;;2.07;;
14599;SDS011;7386;45.586;12.854;2023-01-19T13:45:20;2.20;;;2.10;;
14599;SDS011;7386;45.586;12.854;2023-01-19T13:47:53;2.23;;;2.07;;
14599;SDS011;7386;45.586;12.854;2023-01-19T13:50:24;2.43;;;2.10;;
14599;SDS011;7386;45.586;12.854;2023-01-19T13:52:53;2.70;;;2.07;;
14599;SDS011;7386;45.586;12.854;2023-01-19T13:55:24;2.87;;;2.30;;
14599;SDS011;7386;45.586;12.854;2023-01-19T13:57:53;2.60;;;2.40;;
14599;SDS011;7386;45.586;12.854;2023-01-19T14:00:23;2.60;;;2.40;;
14599;SDS011;7386;45.586;12.854;2023-01-19T14:02:55;2.60;;;2.40;;
14599;SDS011;7386;45.586;12.854;2023-01-19T14:05:27;2.67;;;2.43;;
14599;SDS011;7386;45.586;12.854;2023-01-19T14:08:00;2.87;;;2.40;;
14599;SDS011;7386;45.586;12.854;2023-01-19T14:10:28;2.90;;;2.60;;
14599;SDS011;7386;45.586;12.854;2023-01-19T14:12:58;4.07;;;2.50;;
14599;SDS011;7386;45.586;12.854;2023-01-19T14:15:26;2.50;;;2.30;;
14599;SDS011;7386;45.586;12.854;2023-01-19T14:20:51;3.53;;;2.40;;
14599;SDS011;7386;45.586;12.854;2023-01-19T14:26:38;2.93;;;2.67;;
14599;SDS011;7386;45.586;12.854;2023-01-19T14:29:15;4.33;;;2.60;;
14599;SDS011;7386;45.586;12.854;2023-01-19T14:31:44;2.80;;;2.50;;
14599;SDS011;7386;45.586;12.854;2023-01-19T14:37:01;2.87;;;2.57;;
14599;SDS011;7386;45.586;12.854;2023-01-19T14:39:30;3.50;;;2.50;;
14599;SDS011;7386;45.586;12.854;2023-01-19T14:42:00;2.80;;;2.50;;
14599;SDS011;7386;45.586;12.854;2023-01-19T14:44:30;4.27;;;2.70;;
14599;SDS011;7386;45.586;12.854;2023-01-19T14:46:59;2.97;;;2.67;;
14599;SDS011;7386;45.586;12.854;2023-01-19T14:49:29;5.57;;;2.60;;
14599;SDS011;7386;45.586;12.854;2023-01-19T14:52:00;2.83;;;2.63;;
14599;SDS011;7386;45.586;12.854;2023-01-19T14:54:31;3.70;;;2.80;;
14599;SDS011;7386;45.586;12.854;2023-01-19T14:57:00;4.17;;;2.80;;
14599;SDS011;7386;45.586;12.854;2023-01-19T14:59:28;3.37;;;2.77;;
14599;SDS011;7386;45.586;12.854;2023-01-19T15:01:57;2.70;;;2.50;;
14599;SDS011;7386;45.586;12.854;2023-01-19T15:04:26;4.57;;;2.53;;
14599;SDS011;7386;45.586;12.854;2023-01-19T15:06:55;5.67;;;2.67;;
14599;SDS011;7386;45.586;12.854;2023-01-19T15:09:25;3.00;;;2.70;;
14599;SDS011;7386;45.586;12.854;2023-01-19T15:11:54;2.73;;;2.50;;
14599;SDS011;7386;45.586;12.854;2023-01-19T15:14:22;3.87;;;2.63;;
14599;SDS011;7386;45.586;12.854;2023-01-19T15:16:51;2.97;;;2.23;;
14599;SDS011;7386;45.586;12.854;2023-01-19T15:19:19;2.50;;;2.30;;
14599;SDS011;7386;45.586;12.854;2023-01-19T15:21:48;3.33;;;2.47;;
14599;SDS011;7386;45.586;12.854;2023-01-19T15:24:16;2.97;;;2.60;;
14599;SDS011;7386;45.586;12.854;2023-01-19T15:26:46;2.70;;;2.50;;